Time;durP1;ratioP1;P1;durP2;ratioP2;P2;SDS_P1;SDS_P2;PMS_P1;PMS_P2;Temp;Humidity;BMP_temperature;BMP_pressure;BME280_temperature;BME280_humidity;BME280_pressure;Samples;Min_cycle;Max_cycle;Signal;HPM_P1;HPM_P2
2022/07/14 00:01:41;;;;;;;5.57;2.80;;;;;;;;;;5071897;28;20047;-72
2022/07/14 00:04:07;;;;;;;5.40;2.97;;;;;;;;;;5073278;28;20509;-71
2022/07/14 00:06:34;;;;;;;11.32;3.40;;;;;;;;;;5073472;28;20029;-70
2022/07/14 00:09:00;;;;;;;10.82;3.00;;;;;;;;;;5073486;28;20016;-75
2022/07/14 00:11:26;;;;;;;6.07;2.83;;;;;;;;;;5070264;28;20497;-75
2022/07/14 00:13:52;;;;;;;6.35;2.92;;;;;;;;;;5071555;28;20086;-70
2022/07/14 00:16:22;;;;;;;6.80;2.90;;;;;;;;;;5082722;28;20033;-73
2022/07/14 00:18:48;;;;;;;6.55;3.00;;;;;;;;;;5071394;28;20481;-71
2022/07/14 00:21:15;;;;;;;8.98;3.83;;;;;;;;;;5065264;28;20127;-71
2022/07/14 00:23:42;;;;;;;5.00;2.90;;;;;;;;;;5072519;28;20028;-71
2022/07/14 00:26:08;;;;;;;4.45;2.97;;;;;;;;;;5070992;28;20025;-74
2022/07/14 00:28:34;;;;;;;4.90;3.00;;;;;;;;;;5081271;28;20108;-72
2022/07/14 00:31:03;;;;;;;8.43;2.83;;;;;;;;;;5071273;28;20025;-70
2022/07/14 00:33:30;;;;;;;7.93;3.38;;;;;;;;;;5072912;28;20108;-71
2022/07/14 00:36:19;;;;;;;7.32;3.00;;;;;;;;;;5075186;28;20115;-71
2022/07/14 00:38:45;;;;;;;4.93;2.72;;;;;;;;;;5071367;28;20252;-74
2022/07/14 00:41:26;;;;;;;7.38;3.00;;;;;;;;;;5073340;28;20038;-74
2022/07/14 00:43:52;;;;;;;6.30;2.92;;;;;;;;;;5071782;28;20021;-72
2022/07/14 00:46:18;;;;;;;6.13;3.13;;;;;;;;;;5072446;28;20035;-74
2022/07/14 00:48:45;;;;;;;5.72;2.90;;;;;;;;;;5073145;28;20107;-75
2022/07/14 00:54:29;;;;;;;6.55;3.25;;;;;;;;;;5018553;28;20540;-70
2022/07/14 00:57:03;;;;;;;38.03;26.98;;;;;;;;;;5034610;28;20033;-74
2022/07/14 00:59:29;;;;;;;28.05;20.00;;;;;;;;;;5030308;28;20033;-74
2022/07/14 01:04:46;;;;;;;8.63;5.03;;;;;;;;;;5030245;28;20533;-70
2022/07/14 01:07:13;;;;;;;6.82;3.78;;;;;;;;;;5035738;28;20124;-72
2022/07/14 01:09:39;;;;;;;4.72;3.20;;;;;;;;;;5029930;28;20394;-70
2022/07/14 01:12:06;;;;;;;6.10;3.45;;;;;;;;;;5021722;28;20083;-71
2022/07/14 01:14:32;;;;;;;6.85;3.30;;;;;;;;;;5030213;28;20038;-74
2022/07/14 01:16:58;;;;;;;5.50;3.10;;;;;;;;;;5028095;28;20034;-71
2022/07/14 01:19:24;;;;;;;4.38;2.75;;;;;;;;;;5027958;28;20040;-74
2022/07/14 01:22:03;;;;;;;5.55;3.00;;;;;;;;;;5028992;28;20224;-74
2022/07/14 01:24:29;;;;;;;7.30;3.33;;;;;;;;;;5012354;28;20033;-71
2022/07/14 01:26:55;;;;;;;7.00;3.08;;;;;;;;;;5027728;28;20029;-73
2022/07/14 01:29:21;;;;;;;5.43;3.00;;;;;;;;;;5039429;28;20041;-74
2022/07/14 01:31:47;;;;;;;6.07;2.90;;;;;;;;;;5073006;28;20028;-70
2022/07/14 01:34:13;;;;;;;8.15;2.97;;;;;;;;;;5071722;28;20029;-70
2022/07/14 01:36:45;;;;;;;6.03;2.90;;;;;;;;;;5075591;28;20021;-73
2022/07/14 01:39:14;;;;;;;5.68;2.80;;;;;;;;;;5087244;28;20024;-73
2022/07/14 01:41:41;;;;;;;6.55;2.90;;;;;;;;;;5075251;28;20485;-74
2022/07/14 01:44:09;;;;;;;3.65;2.83;;;;;;;;;;5071521;28;20029;-71
2022/07/14 01:46:35;;;;;;;4.10;2.50;;;;;;;;;;5071478;28;20119;-74
2022/07/14 01:49:01;;;;;;;5.68;2.78;;;;;;;;;;5071741;28;20031;-74
2022/07/14 01:51:37;;;;;;;8.65;2.83;;;;;;;;;;5071848;28;20420;-70
2022/07/14 01:54:06;;;;;;;6.18;3.00;;;;;;;;;;5069200;28;20029;-70
2022/07/14 01:56:33;;;;;;;5.15;2.85;;;;;;;;;;5071533;28;20031;-75
2022/07/14 01:59:00;;;;;;;4.38;2.67;;;;;;;;;;5072004;28;20056;-75
2022/07/14 02:01:42;;;;;;;5.32;2.53;;;;;;;;;;5065709;28;20095;-70
2022/07/14 02:04:11;;;;;;;4.43;2.53;;;;;;;;;;5072781;28;20100;-74
2022/07/14 02:06:38;;;;;;;7.00;2.70;;;;;;;;;;5067841;28;20056;-71
2022/07/14 02:09:04;;;;;;;6.25;2.78;;;;;;;;;;5071524;28;20023;-71
2022/07/14 02:14:15;;;;;;;3.42;2.60;;;;;;;;;;5077252;28;20043;-70
2022/07/14 02:16:41;;;;;;;4.18;2.30;;;;;;;;;;5070867;28;20020;-75
2022/07/14 02:19:07;;;;;;;5.07;2.78;;;;;;;;;;5071600;28;20016;-72
2022/07/14 02:21:34;;;;;;;3.45;2.70;;;;;;;;;;5070995;28;20041;-71
2022/07/14 02:24:00;;;;;;;4.30;2.60;;;;;;;;;;5068860;28;20111;-74
2022/07/14 02:26:26;;;;;;;3.92;2.40;;;;;;;;;;5071654;28;20059;-70
2022/07/14 02:28:53;;;;;;;5.05;2.65;;;;;;;;;;5071651;28;20032;-70
2022/07/14 02:31:19;;;;;;;4.85;2.50;;;;;;;;;;5073304;28;20409;-70
2022/07/14 02:33:48;;;;;;;4.40;2.40;;;;;;;;;;5075283;28;20478;-73
2022/07/14 02:36:14;;;;;;;5.70;2.60;;;;;;;;;;5072883;28;20036;-70
2022/07/14 02:38:40;;;;;;;4.07;2.58;;;;;;;;;;5072958;28;20017;-71
2022/07/14 02:41:07;;;;;;;3.22;2.40;;;;;;;;;;5074812;28;20119;-70
2022/07/14 02:43:34;;;;;;;4.57;2.53;;;;;;;;;;5069760;28;20040;-75
2022/07/14 02:46:01;;;;;;;4.13;2.40;;;;;;;;;;5077426;28;20027;-74
2022/07/14 02:48:27;;;;;;;6.28;2.30;;;;;;;;;;5080290;28;20025;-71
2022/07/14 02:51:00;;;;;;;7.25;2.70;;;;;;;;;;5074707;28;20028;-71
2022/07/14 02:53:26;;;;;;;6.05;2.42;;;;;;;;;;5074210;28;20117;-70
2022/07/14 02:55:53;;;;;;;5.50;2.65;;;;;;;;;;5074157;28;20503;-70
2022/07/14 02:58:19;;;;;;;4.55;2.50;;;;;;;;;;5079806;28;20486;-73
2022/07/14 03:00:45;;;;;;;4.30;2.20;;;;;;;;;;5074917;28;20032;-73
2022/07/14 03:06:20;;;;;;;4.38;2.50;;;;;;;;;;5063092;28;20111;-71
2022/07/14 03:08:47;;;;;;;5.28;2.47;;;;;;;;;;5075497;28;20032;-71
2022/07/14 03:11:13;;;;;;;4.53;2.28;;;;;;;;;;5074075;28;20028;-73
2022/07/14 03:13:41;;;;;;;7.05;2.42;;;;;;;;;;5078148;28;20044;-73
2022/07/14 03:16:09;;;;;;;4.60;2.40;;;;;;;;;;5081950;28;20028;-70
2022/07/14 03:18:35;;;;;;;7.82;2.40;;;;;;;;;;5072634;28;20032;-70
2022/07/14 03:21:04;;;;;;;5.18;2.50;;;;;;;;;;5073849;28;20036;-70
2022/07/14 03:23:30;;;;;;;6.38;2.30;;;;;;;;;;5073527;28;20051;-71
2022/07/14 03:25:56;;;;;;;6.78;3.13;;;;;;;;;;5074286;28;20020;-70
2022/07/14 03:28:22;;;;;;;5.80;2.42;;;;;;;;;;5072252;28;20028;-74
2022/07/14 03:30:54;;;;;;;6.50;2.70;;;;;;;;;;5082637;28;20021;-71
2022/07/14 03:33:20;;;;;;;4.97;2.40;;;;;;;;;;5073943;28;20029;-70
2022/07/14 03:36:17;;;;;;;6.95;2.28;;;;;;;;;;5078663;28;20027;-70
2022/07/14 03:38:59;;;;;;;4.22;2.38;;;;;;;;;;5038164;28;20037;-71
2022/07/14 03:41:26;;;;;;;6.80;2.40;;;;;;;;;;5022250;28;20506;-73
2022/07/14 03:43:52;;;;;;;6.53;2.60;;;;;;;;;;5029749;28;20423;-70
2022/07/14 03:46:18;;;;;;;4.45;2.60;;;;;;;;;;5031947;28;20426;-73
2022/07/14 03:48:44;;;;;;;4.53;2.60;;;;;;;;;;5030073;28;20444;-70
2022/07/14 03:51:10;;;;;;;7.18;2.92;;;;;;;;;;5037137;28;20101;-74
2022/07/14 03:53:36;;;;;;;5.38;2.67;;;;;;;;;;5031288;28;20029;-72
2022/07/14 03:56:22;;;;;;;12.82;2.90;;;;;;;;;;5033982;28;20060;-71
2022/07/14 03:58:48;;;;;;;8.50;2.75;;;;;;;;;;5015006;28;20037;-73
2022/07/14 04:01:14;;;;;;;6.45;2.85;;;;;;;;;;5034922;28;20067;-74
2022/07/14 04:03:41;;;;;;;8.68;2.60;;;;;;;;;;5034024;28;20041;-70
2022/07/14 04:06:07;;;;;;;6.90;2.55;;;;;;;;;;5042194;28;20165;-71
2022/07/14 04:08:50;;;;;;;;;;;;;;;;;;;;;
2022/07/14 04:11:17;;;;;;;8.55;3.47;;;;;;;;;;5035548;28;20025;-72
2022/07/14 04:13:43;;;;;;;10.40;4.00;;;;;;;;;;5034699;28;20033;-72
2022/07/14 04:16:09;;;;;;;8.98;3.95;;;;;;;;;;5062789;28;20421;-72
2022/07/14 04:21:24;;;;;;;6.57;2.50;;;;;;;;;;5067061;28;20124;-73
2022/07/14 04:23:50;;;;;;;5.38;2.53;;;;;;;;;;5073406;28;20036;-71
2022/07/14 04:26:17;;;;;;;14.35;3.13;;;;;;;;;;5072895;28;20060;-71
2022/07/14 04:28:43;;;;;;;5.22;2.50;;;;;;;;;;5073119;28;20028;-73
2022/07/14 04:31:09;;;;;;;6.30;2.55;;;;;;;;;;5072155;28;20099;-72
2022/07/14 04:33:35;;;;;;;6.82;3.78;;;;;;;;;;5073381;28;20456;-70
2022/07/14 04:36:02;;;;;;;6.57;2.42;;;;;;;;;;5071024;28;20044;-71
2022/07/14 04:38:29;;;;;;;9.90;3.20;;;;;;;;;;5072431;28;20020;-73
2022/07/14 04:40:56;;;;;;;8.38;2.78;;;;;;;;;;5071885;28;20025;-71
2022/07/14 04:43:22;;;;;;;6.30;2.47;;;;;;;;;;5078560;28;20036;-71
2022/07/14 04:45:48;;;;;;;6.13;2.63;;;;;;;;;;5072023;28;20466;-71
2022/07/14 04:48:14;;;;;;;5.03;2.70;;;;;;;;;;5072177;28;20605;-71
2022/07/14 04:53:25;;;;;;;9.52;2.90;;;;;;;;;;5070826;28;20035;-73
2022/07/14 04:55:51;;;;;;;7.13;2.30;;;;;;;;;;5071589;28;20027;-70
2022/07/14 05:01:27;;;;;;;10.35;2.60;;;;;;;;;;5069255;28;20175;-72
2022/07/14 05:03:53;;;;;;;4.60;2.65;;;;;;;;;;5069944;28;20039;-76
2022/07/14 05:06:19;;;;;;;6.78;2.72;;;;;;;;;;5074475;28;20428;-69
2022/07/14 05:08:46;;;;;;;7.03;2.85;;;;;;;;;;5071870;28;20033;-73
2022/07/14 05:11:12;;;;;;;7.97;2.97;;;;;;;;;;5069385;28;20027;-73
2022/07/14 05:13:38;;;;;;;4.50;3.00;;;;;;;;;;5067534;28;20100;-73
2022/07/14 05:16:27;;;;;;;4.47;2.35;;;;;;;;;;5072940;28;20024;-69
2022/07/14 05:18:53;;;;;;;5.82;2.70;;;;;;;;;;5065572;28;20062;-69
2022/07/14 05:21:19;;;;;;;6.55;2.70;;;;;;;;;;5070484;28;20101;-70
2022/07/14 05:23:46;;;;;;;5.95;2.67;;;;;;;;;;5072269;28;20045;-69
2022/07/14 05:26:13;;;;;;;6.55;2.80;;;;;;;;;;5073884;28;20355;-69
2022/07/14 05:28:42;;;;;;;9.20;2.80;;;;;;;;;;5070719;28;20070;-71
2022/07/14 05:31:09;;;;;;;7.55;2.80;;;;;;;;;;5069667;28;20028;-70
2022/07/14 05:33:35;;;;;;;12.02;3.72;;;;;;;;;;5069956;28;20056;-68
2022/07/14 05:36:02;;;;;;;8.52;3.10;;;;;;;;;;5070994;28;20390;-71
2022/07/14 05:38:28;;;;;;;11.30;3.28;;;;;;;;;;5068890;28;20032;-69
2022/07/14 05:40:55;;;;;;;4.10;2.80;;;;;;;;;;5070311;28;20532;-70
2022/07/14 05:43:21;;;;;;;4.75;2.72;;;;;;;;;;5069001;28;20797;-77
2022/07/14 05:45:47;;;;;;;5.57;2.60;;;;;;;;;;5069194;28;20107;-76
2022/07/14 05:48:13;;;;;;;4.85;3.05;;;;;;;;;;5070702;28;20032;-75
2022/07/14 05:50:39;;;;;;;9.27;2.90;;;;;;;;;;5069181;28;20510;-74
2022/07/14 05:53:05;;;;;;;6.60;2.80;;;;;;;;;;5068536;28;20036;-69
2022/07/14 05:55:31;;;;;;;6.40;2.63;;;;;;;;;;5067590;28;20029;-70
2022/07/14 05:57:57;;;;;;;6.85;2.70;;;;;;;;;;5088549;28;20063;-69
2022/07/14 06:00:23;;;;;;;5.47;2.60;;;;;;;;;;5068067;28;20378;-71
2022/07/14 06:02:50;;;;;;;4.72;2.67;;;;;;;;;;5055800;28;20064;-70
2022/07/14 06:05:16;;;;;;;3.92;2.67;;;;;;;;;;5066181;28;20024;-73
2022/07/14 06:07:42;;;;;;;6.43;2.90;;;;;;;;;;5060888;28;20033;-77
2022/07/14 06:10:10;;;;;;;3.58;2.63;;;;;;;;;;5062508;28;20078;-78
2022/07/14 06:12:40;;;;;;;7.75;2.70;;;;;;;;;;5061496;28;20718;-79
2022/07/14 06:15:10;;;;;;;4.03;2.60;;;;;;;;;;5063750;28;20024;-77
2022/07/14 06:17:36;;;;;;;7.72;3.00;;;;;;;;;;5073104;28;20185;-77
2022/07/14 06:20:08;;;;;;;5.15;2.58;;;;;;;;;;5075810;28;20044;-77
2022/07/14 06:22:35;;;;;;;4.38;3.00;;;;;;;;;;5075062;28;20117;-76
2022/07/14 06:25:01;;;;;;;8.57;3.10;;;;;;;;;;5072828;28;20074;-74
2022/07/14 06:27:28;;;;;;;5.38;3.30;;;;;;;;;;5074281;28;20066;-74
2022/07/14 06:29:54;;;;;;;6.10;3.25;;;;;;;;;;5073750;28;20104;-74
2022/07/14 11:52:54;;;;;;;2.25;1.90;;;;;;;;;;5142425;27;20415;-71
2022/07/14 11:55:20;;;;;;;15.73;2.42;;;;;;;;;;5113966;27;20122;-72
2022/07/14 11:57:51;;;;;;;6.25;2.45;;;;;;;;;;5105103;28;20037;-73
2022/07/14 12:00:17;;;;;;;6.72;2.13;;;;;;;;;;5103664;28;20023;-72
2022/07/14 12:02:53;;;;;;;4.85;2.30;;;;;;;;;;5093756;28;20115;-71
2022/07/14 12:05:21;;;;;;;5.53;2.17;;;;;;;;;;5091612;28;20116;-72
2022/07/14 12:07:48;;;;;;;3.67;2.10;;;;;;;;;;5091481;28;20103;-69
2022/07/14 12:10:16;;;;;;;5.55;2.05;;;;;;;;;;5090084;28;20021;-71
2022/07/14 12:12:47;;;;;;;5.43;2.20;;;;;;;;;;5110571;28;20095;-72
2022/07/14 12:15:23;;;;;;;4.35;2.08;;;;;;;;;;5102351;27;20020;-72
2022/07/14 12:17:52;;;;;;;6.55;2.10;;;;;;;;;;5097103;28;20024;-73
2022/07/14 12:20:18;;;;;;;3.80;2.10;;;;;;;;;;5096114;28;20040;-73
2022/07/14 12:22:45;;;;;;;3.72;2.00;;;;;;;;;;5089021;28;20434;-69
2022/07/14 12:25:26;;;;;;;3.40;2.03;;;;;;;;;;5104358;27;20029;-70
2022/07/14 12:27:53;;;;;;;3.67;2.35;;;;;;;;;;5090071;28;20036;-71
2022/07/14 12:30:20;;;;;;;5.72;2.22;;;;;;;;;;5088976;28;20025;-72
2022/07/14 12:32:50;;;;;;;5.97;2.03;;;;;;;;;;5089169;28;20016;-73
2022/07/14 12:35:16;;;;;;;4.78;2.00;;;;;;;;;;5094606;28;20031;-72
2022/07/14 12:37:43;;;;;;;6.38;2.58;;;;;;;;;;5089408;28;20411;-71
2022/07/14 12:40:11;;;;;;;4.60;2.20;;;;;;;;;;5089197;28;20028;-72
2022/07/14 12:42:38;;;;;;;5.82;2.15;;;;;;;;;;5088549;28;20495;-73
2022/07/14 12:45:07;;;;;;;4.60;2.30;;;;;;;;;;5099125;28;20045;-73
2022/07/14 12:47:47;;;;;;;3.03;2.20;;;;;;;;;;5102508;27;20035;-69
2022/07/14 12:50:20;;;;;;;7.82;2.17;;;;;;;;;;5096015;28;20496;-69
2022/07/14 12:52:53;;;;;;;6.50;2.67;;;;;;;;;;5087819;28;20056;-72
2022/07/14 12:55:19;;;;;;;;;;;;;;;;;;5078137;28;20027;-72
2022/07/14 12:57:45;;;;;;;3.90;1.90;;;;;;;;;;5102966;28;19908;-72
2022/07/14 13:00:12;;;;;;;12.25;3.10;;;;;;;;;;5081149;28;20488;-70
2022/07/14 13:02:42;;;;;;;7.07;2.10;;;;;;;;;;5081143;28;20036;-71
2022/07/14 13:05:10;;;;;;;2.28;1.90;;;;;;;;;;5087373;28;20020;-70
2022/07/14 13:07:38;;;;;;;7.55;2.83;;;;;;;;;;5102122;28;20415;-72
2022/07/14 13:10:12;;;;;;;7.28;2.05;;;;;;;;;;5075778;28;20031;-71
2022/07/14 13:12:43;;;;;;;9.65;2.90;;;;;;;;;;5081183;28;20024;-71
2022/07/14 13:15:23;;;;;;;2.90;1.75;;;;;;;;;;5089171;28;20032;-71
2022/07/14 13:17:52;;;;;;;5.10;2.45;;;;;;;;;;5092086;28;20085;-73
2022/07/14 13:20:36;;;;;;;6.10;2.15;;;;;;;;;;5092253;28;20556;-73
2022/07/14 13:23:02;;;;;;;6.30;2.63;;;;;;;;;;5074822;28;20420;-72
2022/07/14 13:25:29;;;;;;;7.72;2.90;;;;;;;;;;5087533;28;20028;-68
2022/07/14 13:27:55;;;;;;;11.85;2.60;;;;;;;;;;5085545;28;20100;-73
2022/07/14 13:30:21;;;;;;;5.25;2.45;;;;;;;;;;5081646;28;20028;-69
2022/07/14 13:32:50;;;;;;;16.45;4.05;;;;;;;;;;5075613;28;20017;-69
2022/07/14 13:35:20;;;;;;;12.35;2.90;;;;;;;;;;5074300;28;20036;-69
2022/07/14 13:37:46;;;;;;;14.75;3.33;;;;;;;;;;5074099;28;20055;-72
2022/07/14 13:40:12;;;;;;;8.00;2.53;;;;;;;;;;5087418;28;20027;-69
2022/07/14 13:42:38;;;;;;;5.22;2.05;;;;;;;;;;5074966;28;20028;-71
2022/07/14 13:45:04;;;;;;;6.93;2.47;;;;;;;;;;5074191;28;20077;-70
2022/07/14 13:47:30;;;;;;;13.25;2.80;;;;;;;;;;5074150;28;20055;-73
2022/07/14 13:52:41;;;;;;;17.00;2.63;;;;;;;;;;5082497;28;20093;-69
2022/07/14 13:55:07;;;;;;;10.30;2.80;;;;;;;;;;5073672;28;20071;-72
2022/07/14 13:57:33;;;;;;;10.75;2.60;;;;;;;;;;5073839;28;20024;-69
2022/07/14 14:00:00;;;;;;;5.05;2.17;;;;;;;;;;5078005;28;20385;-72
2022/07/14 14:03:22;;;;;;;3.28;1.92;;;;;;;;;;5073810;28;20032;-72
2022/07/14 14:05:12;;;;;;;7.40;2.30;;;;;;;;;;5090057;28;20028;-69
2022/07/14 14:07:38;;;;;;;3.67;1.77;;;;;;;;;;5084330;28;20070;-73
2022/07/14 14:10:04;;;;;;;2.13;1.83;;;;;;;;;;5074685;28;20024;-72
2022/07/14 14:12:30;;;;;;;10.05;2.28;;;;;;;;;;5097610;28;20421;-74
2022/07/14 14:14:56;;;;;;;9.27;2.50;;;;;;;;;;5074724;28;20078;-73
2022/07/14 14:17:22;;;;;;;2.42;1.90;;;;;;;;;;5073347;28;20048;-72
2022/07/14 14:19:48;;;;;;;4.60;2.53;;;;;;;;;;5073612;28;20390;-70
2022/07/14 14:22:19;;;;;;;3.85;1.98;;;;;;;;;;5089949;28;20528;-73
2022/07/14 14:24:46;;;;;;;8.15;2.10;;;;;;;;;;5081186;28;20081;-73
2022/07/14 14:27:12;;;;;;;7.82;2.08;;;;;;;;;;5073239;28;20024;-74
2022/07/14 14:29:39;;;;;;;10.95;2.13;;;;;;;;;;5073330;28;20029;-75
2022/07/14 14:32:05;;;;;;;3.28;1.90;;;;;;;;;;5082174;28;20028;-74
2022/07/14 14:34:31;;;;;;;5.72;2.22;;;;;;;;;;5080718;28;20087;-72
2022/07/14 14:36:58;;;;;;;3.88;1.88;;;;;;;;;;5073345;28;20021;-69
2022/07/14 14:39:24;;;;;;;7.30;2.03;;;;;;;;;;5075440;28;20063;-69
2022/07/14 14:41:50;;;;;;;8.35;2.55;;;;;;;;;;5093290;28;20032;-69
2022/07/14 14:44:16;;;;;;;5.53;1.90;;;;;;;;;;5095650;28;20032;-72
2022/07/14 14:46:42;;;;;;;6.60;2.00;;;;;;;;;;5082168;28;20503;-70
2022/07/14 14:49:08;;;;;;;3.35;1.95;;;;;;;;;;5072520;28;20428;-69
2022/07/14 14:51:34;;;;;;;4.45;1.92;;;;;;;;;;5086560;28;20054;-72
2022/07/14 14:54:00;;;;;;;5.30;1.88;;;;;;;;;;5076622;28;20103;-70
2022/07/14 14:56:26;;;;;;;5.28;2.10;;;;;;;;;;5072505;28;20081;-74
2022/07/14 14:58:52;;;;;;;5.00;1.83;;;;;;;;;;5071785;28;20020;-71
2022/07/14 15:01:18;;;;;;;2.75;1.63;;;;;;;;;;5072554;28;20086;-73
2022/07/14 15:03:47;;;;;;;5.25;2.10;;;;;;;;;;5077832;28;20050;-70
2022/07/14 15:06:13;;;;;;;2.25;1.83;;;;;;;;;;5100440;28;20473;-72
2022/07/14 15:08:39;;;;;;;4.90;1.80;;;;;;;;;;5074969;28;20020;-73
2022/07/14 15:11:05;;;;;;;5.57;2.03;;;;;;;;;;5072513;28;20021;-73
2022/07/14 15:13:31;;;;;;;3.60;1.70;;;;;;;;;;5072541;28;20377;-73
2022/07/14 15:15:57;;;;;;;5.60;1.90;;;;;;;;;;5086081;28;20024;-70
2022/07/14 15:18:23;;;;;;;8.55;2.00;;;;;;;;;;5072302;28;20017;-72
2022/07/14 15:20:49;;;;;;;6.00;2.00;;;;;;;;;;5075597;28;20047;-70
2022/07/14 15:23:15;;;;;;;2.95;1.98;;;;;;;;;;5092613;28;20024;-73
2022/07/14 15:25:41;;;;;;;3.60;1.90;;;;;;;;;;5080218;28;20025;-71
2022/07/14 15:28:07;;;;;;;3.42;1.88;;;;;;;;;;5091377;28;20019;-72
2022/07/14 15:30:36;;;;;;;4.40;2.00;;;;;;;;;;5091245;28;20048;-70
2022/07/14 15:33:03;;;;;;;2.83;1.80;;;;;;;;;;5083445;28;20028;-71
2022/07/14 15:35:29;;;;;;;6.38;2.10;;;;;;;;;;5088562;28;20090;-70
2022/07/14 15:37:55;;;;;;;3.00;1.67;;;;;;;;;;5096533;28;20020;-72
2022/07/14 15:43:06;;;;;;;3.45;2.00;;;;;;;;;;5072258;28;20102;-72
2022/07/14 15:45:32;;;;;;;5.05;2.08;;;;;;;;;;5075419;28;20056;-73
2022/07/14 15:47:59;;;;;;;3.00;2.00;;;;;;;;;;5105452;28;20027;-70
2022/07/14 15:50:26;;;;;;;3.75;1.58;;;;;;;;;;5104261;28;20086;-72
2022/07/14 15:52:52;;;;;;;3.80;2.50;;;;;;;;;;5081525;28;20040;-70
2022/07/14 15:55:18;;;;;;;3.72;2.20;;;;;;;;;;5074051;28;20028;-70
2022/07/14 15:57:44;;;;;;;30.27;25.08;;;;;;;;;;5082620;28;20468;-73
2022/07/14 16:00:11;;;;;;;24.00;12.27;;;;;;;;;;5075646;28;20048;-72
2022/07/14 16:02:37;;;;;;;6.22;3.65;;;;;;;;;;5082430;28;20119;-73
2022/07/14 16:05:04;;;;;;;5.70;2.00;;;;;;;;;;5076091;28;20035;-70
2022/07/14 16:07:30;;;;;;;3.60;2.28;;;;;;;;;;5071822;28;20037;-69
2022/07/14 16:09:56;;;;;;;3.38;1.90;;;;;;;;;;5079132;28;20028;-69
2022/07/14 16:12:23;;;;;;;5.65;2.22;;;;;;;;;;5071949;28;20020;-70
2022/07/14 16:14:49;;;;;;;14.13;2.30;;;;;;;;;;5072929;28;20070;-70
2022/07/14 16:17:15;;;;;;;5.00;1.73;;;;;;;;;;5074741;28;20031;-72
2022/07/14 16:19:41;;;;;;;5.00;1.90;;;;;;;;;;5089619;28;20393;-73
2022/07/14 16:22:07;;;;;;;8.57;2.10;;;;;;;;;;5087676;28;20048;-73
2022/07/14 16:24:33;;;;;;;5.05;2.22;;;;;;;;;;5072419;28;20123;-73
2022/07/14 16:26:59;;;;;;;7.78;2.22;;;;;;;;;;5072234;28;20058;-70
2022/07/14 16:29:25;;;;;;;5.18;1.95;;;;;;;;;;5078892;28;20021;-71
2022/07/14 16:31:51;;;;;;;12.93;2.78;;;;;;;;;;5102986;28;20024;-70
2022/07/14 16:34:17;;;;;;;7.95;2.10;;;;;;;;;;5093823;28;20109;-71
2022/07/14 16:36:44;;;;;;;9.65;2.70;;;;;;;;;;5092691;28;20033;-73
2022/07/14 16:39:10;;;;;;;6.78;2.30;;;;;;;;;;5075034;28;20087;-72
2022/07/14 16:41:36;;;;;;;9.88;2.50;;;;;;;;;;5075446;28;20139;-72
2022/07/14 16:44:02;;;;;;;8.18;2.13;;;;;;;;;;5075999;28;20021;-73
2022/07/14 16:46:28;;;;;;;6.45;2.05;;;;;;;;;;5087316;28;20039;-70
2022/07/14 16:48:54;;;;;;;4.30;2.40;;;;;;;;;;5075095;28;20063;-73
2022/07/14 16:51:20;;;;;;;2.85;1.80;;;;;;;;;;5090306;28;20048;-71
2022/07/14 16:53:46;;;;;;;4.68;2.00;;;;;;;;;;5089999;28;20465;-72
2022/07/14 16:56:12;;;;;;;4.45;2.33;;;;;;;;;;5081123;28;20504;-72
2022/07/14 16:58:39;;;;;;;5.55;2.25;;;;;;;;;;5075290;28;20114;-73
2022/07/14 17:01:05;;;;;;;5.05;2.03;;;;;;;;;;5074789;28;20028;-70
2022/07/14 17:03:32;;;;;;;5.07;2.15;;;;;;;;;;5075977;28;20103;-73
2022/07/14 17:08:43;;;;;;;4.07;2.03;;;;;;;;;;5113987;28;20062;-71
2022/07/14 17:11:09;;;;;;;3.72;2.28;;;;;;;;;;5104827;27;20023;-71
2022/07/14 17:13:35;;;;;;;3.28;2.10;;;;;;;;;;5092279;28;20020;-71
2022/07/14 17:16:01;;;;;;;6.05;2.30;;;;;;;;;;5077848;28;20025;-72
2022/07/14 17:18:27;;;;;;;2.92;1.85;;;;;;;;;;5101413;28;20110;-72
2022/07/14 17:20:53;;;;;;;4.60;2.15;;;;;;;;;;5083027;28;20043;-72
2022/07/14 17:23:19;;;;;;;4.57;2.05;;;;;;;;;;5076910;28;20024;-71
2022/07/14 17:25:47;;;;;;;6.20;2.30;;;;;;;;;;5074226;28;20052;-70
2022/07/14 17:28:14;;;;;;;6.78;3.15;;;;;;;;;;5073795;28;20016;-73
2022/07/14 17:30:40;;;;;;;11.32;7.47;;;;;;;;;;5074252;28;20021;-73
2022/07/14 17:33:07;;;;;;;13.20;7.53;;;;;;;;;;5074565;28;20470;-71
2022/07/14 17:35:33;;;;;;;11.02;5.35;;;;;;;;;;5093388;28;20024;-72
2022/07/14 17:37:59;;;;;;;11.02;3.92;;;;;;;;;;5081985;28;20108;-73
2022/07/14 17:40:25;;;;;;;14.77;4.60;;;;;;;;;;5077846;28;20016;-73
2022/07/14 17:42:51;;;;;;;13.00;6.07;;;;;;;;;;5079248;28;20118;-73
2022/07/14 17:45:18;;;;;;;16.98;6.00;;;;;;;;;;5075748;28;20020;-70
2022/07/14 17:47:44;;;;;;;24.88;5.45;;;;;;;;;;5082891;28;20032;-72
2022/07/14 17:50:10;;;;;;;49.83;7.40;;;;;;;;;;5093818;28;20375;-70
2022/07/14 17:52:36;;;;;;;39.75;6.35;;;;;;;;;;5089171;28;20047;-73
2022/07/14 17:55:02;;;;;;;24.05;4.88;;;;;;;;;;5076030;28;20052;-70
2022/07/14 17:57:28;;;;;;;18.35;4.45;;;;;;;;;;5073927;28;20032;-71
2022/07/14 17:59:54;;;;;;;6.88;4.07;;;;;;;;;;5073883;28;20103;-73
2022/07/14 18:02:20;;;;;;;11.55;5.97;;;;;;;;;;5080515;28;20044;-73
2022/07/14 18:04:46;;;;;;;13.73;6.53;;;;;;;;;;5074830;28;20025;-72
2022/07/14 18:07:12;;;;;;;12.30;3.78;;;;;;;;;;5087988;28;20032;-71
2022/07/14 18:09:38;;;;;;;10.15;4.00;;;;;;;;;;5075060;28;20446;-72
2022/07/14 18:12:04;;;;;;;8.77;3.08;;;;;;;;;;5080520;28;20354;-72
2022/07/14 18:14:30;;;;;;;14.88;2.97;;;;;;;;;;5084613;28;20049;-70
2022/07/14 18:16:56;;;;;;;7.78;2.83;;;;;;;;;;5089845;28;20024;-73
2022/07/14 18:19:23;;;;;;;6.70;2.70;;;;;;;;;;5085827;28;20393;-72
2022/07/14 18:21:49;;;;;;;7.35;2.67;;;;;;;;;;5073080;28;20496;-73
2022/07/14 18:24:15;;;;;;;5.60;2.55;;;;;;;;;;5091093;28;20024;-71
2022/07/14 18:26:41;;;;;;;7.57;2.50;;;;;;;;;;5079652;28;20067;-71
2022/07/14 18:29:09;;;;;;;3.47;2.60;;;;;;;;;;5077069;28;20024;-73
2022/07/14 18:31:35;;;;;;;8.15;2.47;;;;;;;;;;5102220;28;20054;-71
2022/07/14 18:34:02;;;;;;;6.85;2.33;;;;;;;;;;5080356;28;20042;-73
2022/07/14 18:36:28;;;;;;;4.97;2.50;;;;;;;;;;5073259;28;20485;-73
2022/07/14 18:38:55;;;;;;;4.63;2.20;;;;;;;;;;5086125;28;20016;-73
2022/07/14 18:41:21;;;;;;;7.88;3.03;;;;;;;;;;5095011;28;20051;-71
2022/07/14 18:43:47;;;;;;;6.28;2.72;;;;;;;;;;5080421;28;20020;-72
2022/07/14 18:46:13;;;;;;;13.10;4.28;;;;;;;;;;5072592;28;20020;-72
2022/07/14 18:48:40;;;;;;;8.98;3.65;;;;;;;;;;5073072;28;20115;-71
2022/07/14 18:51:06;;;;;;;8.05;3.20;;;;;;;;;;5094984;28;20040;-72
2022/07/14 18:53:33;;;;;;;7.90;3.45;;;;;;;;;;5074675;28;20433;-73
2022/07/14 18:55:59;;;;;;;7.32;2.72;;;;;;;;;;5084603;28;20024;-72
2022/07/14 18:58:25;;;;;;;5.65;3.00;;;;;;;;;;5088320;28;20020;-71
2022/07/14 19:00:55;;;;;;;8.68;2.80;;;;;;;;;;5087630;28;20047;-69
2022/07/14 19:03:21;;;;;;;6.28;2.30;;;;;;;;;;5089256;28;20047;-69
2022/07/14 19:05:48;;;;;;;4.15;2.40;;;;;;;;;;5083040;28;20042;-70
2022/07/14 19:08:14;;;;;;;5.95;2.38;;;;;;;;;;5078766;28;20043;-70
2022/07/14 19:10:42;;;;;;;7.25;2.50;;;;;;;;;;5084313;28;20066;-70
2022/07/14 19:13:08;;;;;;;4.05;2.40;;;;;;;;;;5091562;28;20472;-70
2022/07/14 19:15:34;;;;;;;6.82;2.70;;;;;;;;;;5085634;28;20103;-70
2022/07/14 19:18:02;;;;;;;6.18;2.50;;;;;;;;;;5084192;28;20393;-71
2022/07/14 19:20:28;;;;;;;6.82;2.33;;;;;;;;;;5085189;28;20028;-76
2022/07/14 19:22:54;;;;;;;8.20;2.90;;;;;;;;;;5087519;28;20027;-76
2022/07/14 19:25:20;;;;;;;7.35;3.10;;;;;;;;;;5080665;28;20062;-78
2022/07/14 19:27:46;;;;;;;6.10;2.90;;;;;;;;;;5085678;28;20500;-73
2022/07/14 19:30:13;;;;;;;6.47;2.63;;;;;;;;;;5087319;28;20032;-72
2022/07/14 19:32:40;;;;;;;4.45;2.33;;;;;;;;;;5092500;28;20019;-73
2022/07/14 19:35:08;;;;;;;6.75;2.67;;;;;;;;;;5084414;28;20085;-73
2022/07/14 19:37:35;;;;;;;5.65;2.55;;;;;;;;;;5092676;28;20031;-73
2022/07/14 19:40:02;;;;;;;7.35;2.50;;;;;;;;;;5079789;28;21216;-71
2022/07/14 19:42:28;;;;;;;7.78;2.72;;;;;;;;;;5077931;28;20497;-74
2022/07/14 19:44:54;;;;;;;7.70;2.40;;;;;;;;;;5087016;28;20106;-71
2022/07/14 19:47:20;;;;;;;4.95;2.25;;;;;;;;;;5091071;28;20035;-74
2022/07/14 19:49:46;;;;;;;3.95;2.30;;;;;;;;;;5082874;28;20020;-73
2022/07/14 19:52:12;;;;;;;4.57;2.28;;;;;;;;;;5083996;28;20045;-73
2022/07/14 19:54:39;;;;;;;5.38;2.42;;;;;;;;;;5094496;28;20031;-73
2022/07/14 19:57:05;;;;;;;8.38;2.95;;;;;;;;;;5073820;28;20436;-71
2022/07/14 19:59:31;;;;;;;6.63;2.53;;;;;;;;;;5084057;28;20346;-73
2022/07/14 20:01:57;;;;;;;4.25;2.38;;;;;;;;;;5073555;28;20503;-74
2022/07/14 20:04:23;;;;;;;4.93;2.33;;;;;;;;;;5092339;28;20024;-73
2022/07/14 20:06:49;;;;;;;3.88;2.20;;;;;;;;;;5079631;28;20028;-74
2022/07/14 20:09:17;;;;;;;3.63;2.20;;;;;;;;;;5080994;28;20027;-73
2022/07/14 20:11:44;;;;;;;7.20;2.40;;;;;;;;;;5089984;28;20042;-73
2022/07/14 20:14:10;;;;;;;5.00;2.45;;;;;;;;;;5082473;28;20069;-73
2022/07/14 20:16:36;;;;;;;4.00;2.30;;;;;;;;;;5089578;28;20024;-71
2022/07/14 20:19:02;;;;;;;2.72;2.10;;;;;;;;;;5076278;28;20025;-74
2022/07/14 20:21:29;;;;;;;4.00;2.00;;;;;;;;;;5081809;28;20444;-73
2022/07/14 20:23:55;;;;;;;6.00;2.15;;;;;;;;;;5076006;28;20021;-73
2022/07/14 20:26:22;;;;;;;5.20;2.35;;;;;;;;;;5092663;28;20028;-73
2022/07/14 20:34:17;;;;;;;5.63;2.60;;;;;;;;;;5085389;28;20436;-73
2022/07/14 20:36:43;;;;;;;5.80;2.20;;;;;;;;;;5074890;28;20393;-73
2022/07/14 20:39:10;;;;;;;5.25;2.33;;;;;;;;;;5075893;28;20534;-73